createdAt,value
2023-02-19T00:00:14.928Z,99.99
2023-02-19T00:01:16.615Z,99.99
2023-02-19T00:02:14.951Z,99.99
2023-02-19T00:03:15.259Z,99.99
2023-02-19T00:04:14.945Z,99.93
2023-02-19T00:05:15.230Z,99.93
2023-02-19T00:06:35.064Z,99.84
2023-02-19T00:07:15.193Z,99.84
2023-02-19T00:08:14.963Z,99.84
2023-02-19T00:09:15.205Z,99.73
2023-02-19T00:10:14.981Z,99.63
2023-02-19T00:11:15.231Z,99.63
2023-02-19T00:12:14.988Z,99.63
2023-02-19T00:13:15.235Z,99.52
2023-02-19T00:14:15.019Z,99.52
2023-02-19T00:15:14.754Z,99.52
2023-02-19T00:16:35.038Z,99.52
2023-02-19T00:17:16.199Z,99.52
2023-02-19T00:18:15.025Z,99.43
2023-02-19T00:19:14.769Z,99.43
2023-02-19T00:20:16.468Z,99.32
2023-02-19T00:21:14.791Z,99.32
2023-02-19T00:22:15.041Z,99.22
2023-02-19T00:23:16.263Z,99.22
2023-02-19T00:24:15.096Z,99.22
2023-02-19T00:25:14.824Z,99.22
2023-02-19T00:26:35.119Z,99.11
2023-02-19T00:27:14.808Z,99.02
2023-02-19T00:28:14.589Z,98.91
2023-02-19T00:29:14.848Z,98.91
2023-02-19T00:30:15.135Z,98.81
2023-02-19T00:31:15.008Z,98.81
2023-02-19T00:32:14.641Z,98.71
2023-02-19T00:33:14.858Z,98.61
2023-02-19T00:34:14.621Z,98.61
2023-02-19T00:35:14.848Z,98.40
2023-02-19T00:36:34.623Z,98.20
2023-02-19T00:37:14.864Z,98.20
2023-02-19T00:38:14.637Z,98.10
2023-02-19T00:39:14.875Z,97.99
2023-02-19T00:40:14.647Z,97.99
2023-02-19T00:41:14.894Z,97.99
2023-02-19T00:42:14.656Z,97.99
2023-02-19T00:43:14.906Z,97.89
2023-02-19T00:44:14.672Z,97.89
2023-02-19T00:45:14.395Z,97.89
2023-02-19T00:46:34.714Z,97.89
2023-02-19T00:47:14.404Z,97.79
2023-02-19T00:48:14.682Z,97.89
2023-02-19T00:49:14.439Z,97.89
2023-02-19T00:50:14.690Z,97.79
2023-02-19T00:51:14.458Z,97.79
2023-02-19T00:52:14.721Z,97.79
2023-02-19T00:53:14.450Z,97.79
2023-02-19T00:54:14.723Z,97.79
2023-02-19T00:55:14.458Z,97.69
2023-02-19T00:56:34.722Z,97.58
2023-02-19T00:57:14.449Z,97.58
2023-02-19T00:58:14.712Z,97.49
2023-02-19T00:59:14.468Z,97.58
2023-02-19T01:00:14.718Z,97.49
2023-02-19T01:01:14.490Z,97.38
2023-02-19T01:02:14.733Z,97.38
2023-02-19T01:03:14.487Z,97.28
2023-02-19T01:04:14.249Z,97.08
2023-02-19T01:05:14.499Z,96.97
2023-02-19T01:06:34.759Z,96.97
2023-02-19T01:07:14.793Z,96.97
2023-02-19T01:08:14.272Z,96.97
2023-02-19T01:09:14.507Z,96.97
2023-02-19T01:10:14.261Z,96.97
2023-02-19T01:11:14.812Z,96.97
2023-02-19T01:12:14.281Z,96.97
2023-02-19T01:13:14.498Z,96.97
2023-02-19T01:14:14.284Z,96.87
2023-02-19T01:15:14.521Z,96.87
2023-02-19T01:16:34.293Z,96.77
2023-02-19T01:17:14.523Z,96.77
2023-02-19T01:18:14.288Z,96.77
2023-02-19T01:19:14.523Z,96.67
2023-02-19T01:20:14.290Z,96.46
2023-02-19T01:21:14.028Z,96.46
2023-02-19T01:22:14.288Z,96.56
2023-02-19T01:23:14.627Z,96.46
2023-02-19T01:24:14.319Z,96.56
2023-02-19T01:25:14.064Z,96.46
2023-02-19T01:26:34.340Z,96.46
2023-02-19T01:27:14.043Z,96.36
2023-02-19T01:28:14.308Z,96.36
2023-02-19T01:29:14.058Z,96.36
2023-02-19T01:30:14.321Z,96.36
2023-02-19T01:31:14.582Z,96.26
2023-02-19T01:32:15.807Z,96.26
2023-02-19T01:33:14.083Z,96.26
2023-02-19T01:34:14.340Z,96.15
2023-02-19T01:35:15.558Z,95.85
2023-02-19T01:36:34.412Z,95.85
2023-02-19T01:37:14.118Z,95.85
2023-02-19T01:38:13.887Z,95.75
2023-02-19T01:39:14.123Z,95.64
2023-02-19T01:40:13.885Z,95.64
2023-02-19T01:41:14.142Z,95.54
2023-02-19T01:42:13.938Z,95.54
2023-02-19T01:43:14.186Z,95.44
2023-02-19T01:44:13.946Z,95.54
2023-02-19T01:45:14.181Z,95.34
2023-02-19T01:46:34.009Z,95.23
2023-02-19T01:47:14.195Z,95.34
2023-02-19T01:48:13.953Z,95.23
2023-02-19T01:49:14.192Z,95.23
2023-02-19T01:50:13.950Z,95.23
2023-02-19T01:51:14.194Z,95.13
2023-02-19T01:52:13.940Z,95.13
2023-02-19T01:53:14.197Z,94.82
2023-02-19T01:54:13.982Z,94.82
2023-02-19T01:55:13.712Z,94.82
2023-02-19T01:56:33.982Z,94.62
2023-02-19T01:57:13.721Z,94.62
2023-02-19T01:58:15.420Z,94.62
2023-02-19T01:59:13.741Z,94.52
2023-02-19T02:00:14.006Z,94.52
2023-02-19T02:01:14.081Z,94.52
2023-02-19T02:02:14.090Z,94.52
2023-02-19T02:03:13.787Z,94.62
2023-02-19T02:04:14.026Z,94.62
2023-02-19T02:05:13.782Z,94.62
2023-02-19T02:06:34.026Z,94.73
2023-02-19T02:07:13.753Z,94.73
2023-02-19T02:08:13.996Z,94.62
2023-02-19T02:09:13.776Z,94.52
2023-02-19T02:10:14.047Z,94.42
2023-02-19T02:11:13.777Z,94.32
2023-02-19T02:12:13.524Z,94.32
2023-02-19T02:13:13.794Z,94.42
2023-02-19T02:14:13.525Z,94.32
2023-02-19T02:15:13.813Z,94.32
2023-02-19T02:16:33.861Z,94.21
2023-02-19T02:17:13.814Z,94.21
2023-02-19T02:18:13.561Z,94.21
2023-02-19T02:19:13.821Z,94.21
2023-02-19T02:20:13.563Z,94.21
2023-02-19T02:21:14.753Z,94.21
2023-02-19T02:22:13.564Z,94.11
2023-02-19T02:23:13.842Z,93.91
2023-02-19T02:24:13.587Z,93.91
2023-02-19T02:25:15.276Z,93.91
2023-02-19T02:26:33.601Z,93.91
2023-02-19T02:27:13.820Z,94.01
2023-02-19T02:28:13.591Z,94.01
2023-02-19T02:29:13.336Z,94.01
2023-02-19T02:30:13.620Z,94.01
2023-02-19T02:31:13.832Z,94.01
2023-02-19T02:32:13.640Z,94.01
2023-02-19T02:33:13.378Z,94.11
2023-02-19T02:34:13.621Z,94.01
2023-02-19T02:35:13.365Z,93.91
2023-02-19T02:36:35.096Z,93.91
2023-02-19T02:37:13.563Z,93.91
2023-02-19T02:38:15.104Z,93.80
2023-02-19T02:39:13.398Z,93.80
2023-02-19T02:40:13.675Z,93.80
2023-02-19T02:41:13.419Z,93.80
2023-02-19T02:42:13.678Z,93.80
2023-02-19T02:43:13.403Z,93.91
2023-02-19T02:44:13.657Z,93.70
2023-02-19T02:45:13.413Z,93.70
2023-02-19T02:46:33.688Z,93.70
2023-02-19T02:47:13.407Z,93.80
2023-02-19T02:48:13.167Z,94.01
2023-02-19T02:49:13.416Z,94.11
2023-02-19T02:50:13.189Z,94.32
2023-02-19T02:51:14.897Z,94.42
2023-02-19T02:52:13.207Z,94.52
2023-02-19T02:53:13.476Z,94.62
2023-02-19T02:54:13.246Z,94.73
2023-02-19T02:55:13.503Z,94.77
2023-02-19T02:56:33.275Z,94.97
2023-02-19T02:57:13.497Z,94.97
2023-02-19T02:58:13.400Z,94.97
2023-02-19T02:59:13.526Z,94.97
2023-02-19T03:00:13.272Z,94.97
2023-02-19T03:01:13.337Z,95.07
2023-02-19T03:02:13.290Z,95.07
2023-02-19T03:03:13.138Z,94.97
2023-02-19T03:04:14.719Z,94.97
2023-02-19T03:05:13.012Z,94.97
2023-02-19T03:06:33.292Z,94.97
2023-02-19T03:07:14.471Z,95.07
2023-02-19T03:08:13.302Z,95.18
2023-02-19T03:09:13.038Z,95.18
2023-02-19T03:10:14.751Z,95.28
2023-02-19T03:11:13.060Z,95.28
2023-02-19T03:12:13.327Z,95.28
2023-02-19T03:13:13.071Z,95.38
2023-02-19T03:14:13.339Z,95.48
2023-02-19T03:15:13.102Z,95.48
2023-02-19T03:16:33.368Z,95.48
2023-02-19T03:17:13.081Z,95.48
2023-02-19T03:18:12.836Z,95.48
2023-02-19T03:19:13.137Z,95.48
2023-02-19T03:20:12.950Z,95.48
2023-02-19T03:21:13.203Z,95.43
2023-02-19T03:22:13.041Z,95.38
2023-02-19T03:23:13.279Z,95.43
2023-02-19T03:24:13.121Z,95.32
2023-02-19T03:25:12.848Z,95.32
2023-02-19T03:26:33.153Z,95.12
2023-02-19T03:27:12.917Z,95.22
2023-02-19T03:28:13.212Z,95.22
2023-02-19T03:29:13.004Z,95.32
2023-02-19T03:30:12.861Z,95.32
2023-02-19T03:31:13.386Z,95.22
2023-02-19T03:32:12.892Z,95.12
2023-02-19T03:33:13.098Z,94.92
2023-02-19T03:34:12.912Z,94.92
2023-02-19T03:35:13.138Z,94.92
2023-02-19T03:36:32.977Z,94.81
2023-02-19T03:37:12.734Z,94.81
2023-02-19T03:38:13.038Z,94.71
2023-02-19T03:39:12.809Z,94.60
2023-02-19T03:40:13.081Z,94.40
2023-02-19T03:41:12.979Z,94.51
2023-02-19T03:42:14.052Z,94.51
2023-02-19T03:43:13.843Z,94.40
2023-02-19T03:44:12.717Z,94.51
2023-02-19T03:45:13.041Z,94.40
2023-02-19T03:46:32.796Z,94.30
2023-02-19T03:47:13.049Z,94.20
2023-02-19T03:48:12.838Z,94.20
2023-02-19T03:49:12.582Z,94.10
2023-02-19T03:50:12.891Z,93.89
2023-02-19T03:51:12.730Z,93.89
2023-02-19T03:52:12.949Z,93.69
2023-02-19T03:53:12.724Z,93.48
2023-02-19T03:54:12.514Z,93.59
2023-02-19T03:55:12.825Z,93.38
2023-02-19T03:56:32.626Z,93.38
2023-02-19T03:57:12.859Z,93.28
2023-02-19T03:58:12.626Z,93.28
2023-02-19T03:59:12.907Z,93.18
2023-02-19T04:00:12.731Z,93.18
2023-02-19T04:01:12.737Z,93.18
2023-02-19T04:02:12.787Z,92.87
2023-02-19T04:03:12.502Z,92.77
2023-02-19T04:04:12.752Z,92.77
2023-02-19T04:05:14.161Z,92.77
2023-02-19T04:06:32.778Z,92.77
2023-02-19T04:07:12.536Z,92.66
2023-02-19T04:08:12.772Z,92.46
2023-02-19T04:09:12.530Z,92.36
2023-02-19T04:10:12.777Z,92.46
2023-02-19T04:11:12.706Z,92.56
2023-02-19T04:12:12.295Z,92.56
2023-02-19T04:13:12.545Z,92.66
2023-02-19T04:14:12.291Z,92.66
2023-02-19T04:15:12.574Z,92.56
2023-02-19T04:16:32.380Z,92.56
2023-02-19T04:17:12.559Z,92.66
2023-02-19T04:18:12.309Z,92.56
2023-02-19T04:19:12.571Z,92.56
2023-02-19T04:20:12.312Z,92.66
2023-02-19T04:21:12.808Z,92.56
2023-02-19T04:22:12.324Z,92.46
2023-02-19T04:23:12.585Z,92.46
2023-02-19T04:24:12.300Z,92.56
2023-02-19T04:25:12.569Z,92.66
2023-02-19T04:26:32.325Z,92.36
2023-02-19T04:27:12.585Z,92.46
2023-02-19T04:28:12.835Z,92.46
2023-02-19T04:29:12.618Z,92.56
2023-02-19T04:30:12.372Z,92.56
2023-02-19T04:31:13.022Z,92.56
2023-02-19T04:32:12.359Z,92.56
2023-02-19T04:33:12.122Z,92.66
2023-02-19T04:34:12.359Z,92.66
2023-02-19T04:35:12.128Z,92.77
2023-02-19T04:36:32.377Z,92.87
2023-02-19T04:37:12.126Z,92.87
2023-02-19T04:38:12.390Z,92.77
2023-02-19T04:39:12.132Z,92.66
2023-02-19T04:40:12.393Z,92.66
2023-02-19T04:41:12.499Z,92.77
2023-02-19T04:42:12.390Z,92.77
2023-02-19T04:43:12.140Z,92.66
2023-02-19T04:44:12.381Z,92.77
2023-02-19T04:45:12.135Z,92.77
2023-02-19T04:46:32.402Z,92.87
2023-02-19T04:47:12.148Z,92.97
2023-02-19T04:48:12.380Z,92.97
2023-02-19T04:49:12.159Z,92.97
2023-02-19T04:50:11.906Z,93.07
2023-02-19T04:51:12.557Z,93.07
2023-02-19T04:52:11.903Z,93.12
2023-02-19T04:53:12.205Z,93.12
2023-02-19T04:54:11.938Z,93.12
2023-02-19T04:55:12.199Z,93.12
2023-02-19T04:56:31.976Z,93.12
2023-02-19T04:57:12.217Z,93.22
2023-02-19T04:58:12.003Z,93.22
2023-02-19T04:59:12.249Z,93.01
2023-02-19T05:00:11.998Z,92.91
2023-02-19T05:01:12.642Z,92.91
2023-02-19T05:02:11.991Z,93.01
2023-02-19T05:03:11.762Z,92.91
2023-02-19T05:04:12.020Z,92.91
2023-02-19T05:05:12.271Z,92.91
2023-02-19T05:06:32.085Z,93.01
2023-02-19T05:07:11.771Z,93.12
2023-02-19T05:08:12.011Z,93.22
2023-02-19T05:09:11.797Z,93.43
2023-02-19T05:10:12.032Z,93.63
2023-02-19T05:11:12.209Z,93.73
2023-02-19T05:12:12.046Z,94.04
2023-02-19T05:13:11.863Z,94.24
2023-02-19T05:14:12.067Z,94.34
2023-02-19T05:15:11.819Z,94.55
2023-02-19T05:16:32.076Z,94.75
2023-02-19T05:17:11.824Z,94.85
2023-02-19T05:18:12.071Z,95.06
2023-02-19T05:19:11.829Z,95.26
2023-02-19T05:20:11.579Z,95.47
2023-02-19T05:21:12.221Z,95.57
2023-02-19T05:22:12.090Z,95.78
2023-02-19T05:23:11.835Z,95.88
2023-02-19T05:24:11.574Z,95.98
2023-02-19T05:25:11.843Z,96.08
2023-02-19T05:26:31.609Z,96.23
2023-02-19T05:27:11.855Z,96.23
2023-02-19T05:28:11.599Z,96.44
2023-02-19T05:29:12.879Z,96.64
2023-02-19T05:30:11.681Z,96.74
2023-02-19T05:31:12.373Z,96.84
2023-02-19T05:32:11.642Z,96.95
2023-02-19T05:33:11.903Z,96.95
2023-02-19T05:34:11.678Z,96.95
2023-02-19T05:35:11.909Z,97.05
2023-02-19T05:36:31.672Z,97.15
2023-02-19T05:37:11.408Z,97.15
2023-02-19T05:38:11.683Z,97.25
2023-02-19T05:39:11.488Z,97.36
2023-02-19T05:40:11.719Z,97.46
2023-02-19T05:41:11.809Z,97.66
2023-02-19T05:42:11.746Z,97.77
2023-02-19T05:43:11.505Z,97.77
2023-02-19T05:44:11.739Z,97.87
2023-02-19T05:45:11.488Z,97.97
2023-02-19T05:46:31.837Z,97.97
2023-02-19T05:47:11.493Z,98.07
2023-02-19T05:48:11.740Z,98.12
2023-02-19T05:49:11.490Z,98.22
2023-02-19T05:50:11.738Z,98.22
2023-02-19T05:51:11.866Z,98.33
2023-02-19T05:52:11.248Z,98.33
2023-02-19T05:53:11.515Z,98.33
2023-02-19T05:54:11.262Z,98.22
2023-02-19T05:55:11.518Z,98.33
2023-02-19T05:56:31.798Z,98.33
2023-02-19T05:57:11.532Z,98.33
2023-02-19T05:58:11.302Z,98.33
2023-02-19T05:59:11.543Z,98.43
2023-02-19T06:00:11.310Z,98.43
2023-02-19T06:01:11.751Z,98.53
2023-02-19T06:02:11.309Z,98.63
2023-02-19T06:03:11.549Z,98.63
2023-02-19T06:04:11.341Z,98.53
2023-02-19T06:05:11.545Z,98.53
2023-02-19T06:06:31.323Z,98.53
2023-02-19T06:07:11.563Z,98.43
2023-02-19T06:08:11.327Z,98.53
2023-02-19T06:09:11.091Z,98.53
2023-02-19T06:10:11.351Z,98.43
2023-02-19T06:11:11.289Z,98.43
2023-02-19T06:12:11.357Z,98.43
2023-02-19T06:13:11.102Z,98.53
2023-02-19T06:14:11.357Z,98.63
2023-02-19T06:15:11.116Z,98.63
2023-02-19T06:16:31.400Z,98.63
2023-02-19T06:17:11.109Z,98.63
2023-02-19T06:18:11.379Z,98.63
2023-02-19T06:19:11.129Z,98.53
2023-02-19T06:20:11.392Z,98.53
2023-02-19T06:21:11.361Z,98.63
2023-02-19T06:22:11.398Z,98.53
2023-02-19T06:23:11.131Z,98.53
2023-02-19T06:24:11.394Z,98.53
2023-02-19T06:25:11.145Z,98.43
2023-02-19T06:26:31.413Z,98.43
2023-02-19T06:27:11.186Z,98.43
2023-02-19T06:28:10.896Z,98.43
2023-02-19T06:29:11.146Z,98.43
2023-02-19T06:30:10.937Z,98.33
2023-02-19T06:31:11.543Z,98.33
2023-02-19T06:32:11.052Z,98.22
2023-02-19T06:33:11.167Z,98.12
2023-02-19T06:34:10.899Z,98.12
2023-02-19T06:35:11.157Z,98.02
2023-02-19T06:36:30.906Z,98.07
2023-02-19T06:37:11.166Z,97.91
2023-02-19T06:38:10.899Z,97.96
2023-02-19T06:39:12.635Z,97.96
2023-02-19T06:40:12.461Z,97.75
2023-02-19T06:41:12.745Z,97.65
2023-02-19T06:42:11.776Z,97.65
2023-02-19T06:43:12.334Z,97.55
2023-02-19T06:44:12.621Z,97.65
2023-02-19T06:45:12.480Z,97.65
2023-02-19T06:46:30.841Z,97.40
2023-02-19T06:47:11.790Z,97.30
2023-02-19T06:48:11.870Z,97.20
2023-02-19T06:49:12.241Z,97.09
2023-02-19T06:50:12.529Z,97.09
2023-02-19T06:51:12.528Z,97.09
2023-02-19T06:52:11.330Z,96.99
2023-02-19T06:53:11.295Z,96.89
2023-02-19T06:54:11.712Z,96.79
2023-02-19T06:55:12.614Z,96.69
2023-02-19T06:56:30.898Z,96.48
2023-02-19T06:57:11.688Z,96.38
2023-02-19T06:58:12.504Z,96.28
2023-02-19T06:59:11.342Z,96.17
2023-02-19T07:00:11.294Z,96.07
2023-02-19T07:01:12.737Z,95.87
2023-02-19T07:02:12.168Z,95.87
2023-02-19T07:03:11.693Z,95.76
2023-02-19T07:04:12.459Z,95.66
2023-02-19T07:05:12.248Z,95.56
2023-02-19T07:06:31.055Z,95.56
2023-02-19T07:07:12.296Z,95.66
2023-02-19T07:08:12.063Z,95.66
2023-02-19T07:09:11.860Z,95.66
2023-02-19T07:10:12.141Z,95.56
2023-02-19T07:11:12.314Z,95.36
2023-02-19T07:12:11.334Z,95.25
2023-02-19T07:13:11.623Z,95.25
2023-02-19T07:14:11.457Z,95.36
2023-02-19T07:15:12.198Z,95.15
2023-02-19T07:16:30.554Z,95.15
2023-02-19T07:17:12.251Z,95.15
2023-02-19T07:18:11.341Z,95.15
2023-02-19T07:19:11.734Z,95.25
2023-02-19T07:20:12.252Z,95.25
2023-02-19T07:21:11.961Z,95.15
2023-02-19T07:22:11.836Z,95.05
2023-02-19T07:23:11.294Z,94.95
2023-02-19T07:24:11.145Z,95.05
2023-02-19T07:25:11.766Z,94.95
2023-02-19T07:26:30.564Z,94.95
2023-02-19T07:27:11.792Z,94.95
2023-02-19T07:28:12.064Z,95.05
2023-02-19T07:29:11.297Z,95.15
2023-02-19T07:30:11.738Z,95.05
2023-02-19T07:31:12.473Z,94.95
2023-02-19T07:32:11.909Z,94.95
2023-02-19T07:33:12.136Z,95.05
2023-02-19T07:34:11.133Z,95.05
2023-02-19T07:35:11.792Z,95.15
2023-02-19T07:36:30.624Z,95.25
2023-02-19T07:37:11.856Z,95.36
2023-02-19T07:38:11.631Z,95.46
2023-02-19T07:39:11.937Z,95.56
2023-02-19T07:40:11.234Z,95.56
2023-02-19T07:41:12.440Z,95.76
2023-02-19T07:42:11.881Z,95.87
2023-02-19T07:43:11.710Z,95.87
2023-02-19T07:44:11.220Z,95.97
2023-02-19T07:45:11.819Z,95.97
2023-02-19T07:46:30.172Z,95.87
2023-02-19T07:47:11.932Z,95.72
2023-02-19T07:48:11.733Z,95.66
2023-02-19T07:49:10.088Z,95.56
2023-02-19T07:50:11.828Z,95.56
2023-02-19T07:51:10.360Z,95.56
2023-02-19T07:52:10.302Z,95.56
2023-02-19T07:53:10.091Z,95.51
2023-02-19T07:54:10.311Z,95.31
2023-02-19T07:55:10.093Z,95.21
2023-02-19T07:56:30.372Z,95.10
2023-02-19T07:57:10.114Z,95.00
2023-02-19T07:58:10.358Z,94.90
2023-02-19T07:59:10.112Z,95.00
2023-02-19T08:00:10.380Z,95.00
2023-02-19T08:01:10.728Z,95.00
2023-02-19T08:02:10.404Z,95.00
2023-02-19T08:03:10.265Z,95.10
2023-02-19T08:04:10.417Z,95.10
2023-02-19T08:05:10.150Z,95.10
2023-02-19T08:06:29.931Z,95.31
2023-02-19T08:07:10.159Z,95.41
2023-02-19T08:08:09.923Z,95.41
2023-02-19T08:09:10.172Z,95.51
2023-02-19T08:10:09.930Z,95.72
2023-02-19T08:11:10.628Z,96.03
2023-02-19T08:12:09.944Z,96.23
2023-02-19T08:13:10.199Z,96.33
2023-02-19T08:14:09.975Z,96.54
2023-02-19T08:15:10.196Z,96.64
2023-02-19T08:16:42.554Z,96.95
2023-02-19T08:17:11.258Z,96.95
2023-02-19T08:18:09.969Z,97.15
2023-02-19T08:19:09.721Z,97.25
2023-02-19T08:20:09.964Z,97.36
2023-02-19T08:21:12.045Z,97.56
2023-02-19T08:22:09.980Z,97.66
2023-02-19T08:23:09.713Z,97.66
2023-02-19T08:24:11.535Z,97.66
2023-02-19T08:25:11.320Z,97.66
2023-02-19T08:26:30.169Z,97.66
2023-02-19T08:27:10.339Z,97.66
2023-02-19T08:28:10.350Z,97.66
2023-02-19T08:29:10.692Z,97.66
2023-02-19T08:30:11.441Z,97.46
2023-02-19T08:31:11.622Z,97.36
2023-02-19T08:32:11.540Z,97.36
2023-02-19T08:33:11.364Z,97.36
2023-02-19T08:34:10.343Z,97.36
2023-02-19T08:35:11.464Z,97.36
2023-02-19T08:36:29.792Z,97.25
2023-02-19T08:37:10.976Z,97.25
2023-02-19T08:38:11.432Z,97.00
2023-02-19T08:39:11.260Z,96.91
2023-02-19T08:40:10.294Z,96.66
2023-02-19T08:41:12.029Z,96.45
2023-02-19T08:42:10.732Z,96.25
2023-02-19T08:43:11.022Z,96.14
2023-02-19T08:44:11.379Z,95.84
2023-02-19T08:45:11.234Z,95.67
2023-02-19T08:46:29.550Z,95.63
2023-02-19T08:47:11.256Z,95.63
2023-02-19T08:48:10.633Z,95.63
2023-02-19T08:49:10.906Z,95.63
2023-02-19T08:50:10.741Z,95.73
2023-02-19T08:51:11.538Z,95.73
2023-02-19T08:52:10.352Z,95.63
2023-02-19T08:53:10.806Z,95.63
2023-02-19T08:54:11.045Z,95.63
2023-02-19T08:55:10.053Z,95.63
2023-02-19T08:56:29.745Z,95.53
2023-02-19T08:57:11.000Z,95.43
2023-02-19T08:58:10.361Z,95.43
2023-02-19T08:59:11.121Z,95.32
2023-02-19T09:00:10.989Z,95.12
2023-02-19T09:01:11.129Z,94.92
2023-02-19T09:02:11.121Z,95.02
2023-02-19T09:03:10.975Z,95.22
2023-02-19T09:04:09.398Z,95.53
2023-02-19T09:05:11.072Z,95.63
2023-02-19T09:06:29.416Z,95.84
2023-02-19T09:07:11.116Z,95.94
2023-02-19T09:08:10.933Z,96.04
2023-02-19T09:09:09.688Z,96.04
2023-02-19T09:10:09.967Z,96.29
2023-02-19T09:11:11.489Z,96.39
2023-02-19T09:12:10.942Z,96.39
2023-02-19T09:13:10.820Z,96.59
2023-02-19T09:14:10.642Z,96.66
2023-02-19T09:15:10.929Z,96.75
2023-02-19T09:16:29.266Z,96.66
2023-02-19T09:17:10.975Z,96.66
2023-02-19T09:18:10.786Z,96.55
2023-02-19T09:19:10.654Z,96.34
2023-02-19T09:20:10.950Z,96.34
2023-02-19T09:21:10.631Z,96.25
2023-02-19T09:22:09.870Z,96.20
2023-02-19T09:23:10.874Z,96.00
2023-02-19T09:24:09.583Z,95.89
2023-02-19T09:25:10.731Z,95.79
2023-02-19T09:26:29.555Z,95.54
2023-02-19T09:27:10.786Z,95.54
2023-02-19T09:28:09.101Z,95.44
2023-02-19T09:29:09.354Z,95.23
2023-02-19T09:30:09.171Z,95.03
2023-02-19T09:31:09.899Z,94.52
2023-02-19T09:32:09.201Z,94.21
2023-02-19T09:33:09.418Z,94.21
2023-02-19T09:34:09.220Z,94.21
2023-02-19T09:35:08.957Z,94.32
2023-02-19T09:36:29.235Z,93.96
2023-02-19T09:37:08.945Z,93.86
2023-02-19T09:38:09.336Z,93.86
2023-02-19T09:39:09.076Z,93.25
2023-02-19T09:40:09.357Z,93.05
2023-02-19T09:41:09.507Z,92.84
2023-02-19T09:42:08.879Z,92.84
2023-02-19T09:43:09.122Z,92.94
2023-02-19T09:44:08.890Z,93.05
2023-02-19T09:45:09.212Z,92.94
2023-02-19T09:46:28.972Z,92.74
2023-02-19T09:47:09.168Z,92.74
2023-02-19T09:48:08.930Z,92.43
2023-02-19T09:49:09.219Z,92.39
2023-02-19T09:50:08.985Z,92.29
2023-02-19T09:51:09.497Z,92.19
2023-02-19T09:52:09.063Z,92.19
2023-02-19T09:53:09.039Z,92.19
2023-02-19T09:54:09.079Z,92.19
2023-02-19T09:55:08.816Z,92.08
2023-02-19T09:56:29.095Z,92.23
2023-02-19T09:57:08.828Z,91.72
2023-02-19T09:58:09.062Z,91.52
2023-02-19T09:59:08.841Z,91.52
2023-02-19T10:00:10.698Z,92.02
2023-02-19T10:01:09.071Z,91.67
2023-02-19T10:02:09.126Z,91.57
2023-02-19T10:03:08.920Z,91.16
2023-02-19T10:04:08.654Z,90.86
2023-02-19T10:05:09.006Z,90.86
2023-02-19T10:06:28.696Z,90.66
2023-02-19T10:07:08.929Z,90.45
2023-02-19T10:08:08.677Z,90.61
2023-02-19T10:09:08.943Z,90.51
2023-02-19T10:10:08.682Z,90.25
2023-02-19T10:11:09.039Z,90.04
2023-02-19T10:12:10.110Z,90.25
2023-02-19T10:13:08.933Z,90.04
2023-02-19T10:14:08.668Z,90.04
2023-02-19T10:15:08.928Z,90.35
2023-02-19T10:16:28.685Z,89.84
2023-02-19T10:17:08.936Z,89.84
2023-02-19T10:18:11.120Z,89.79
2023-02-19T10:19:08.042Z,89.59
2023-02-19T10:20:07.961Z,88.57
2023-02-19T10:21:09.081Z,88.47
2023-02-19T10:22:08.488Z,88.57
2023-02-19T10:23:08.774Z,88.67
2023-02-19T10:24:08.517Z,88.43
2023-02-19T10:25:08.779Z,87.85
2023-02-19T10:26:30.015Z,88.06
2023-02-19T10:27:08.822Z,87.65
2023-02-19T10:28:08.572Z,87.65
2023-02-19T10:29:08.831Z,87.96
2023-02-19T10:30:08.569Z,88.17
2023-02-19T10:31:09.011Z,88.37
2023-02-19T10:32:08.646Z,88.31
2023-02-19T10:33:08.369Z,88.61
2023-02-19T10:34:08.601Z,89.12
2023-02-19T10:35:08.377Z,89.23
2023-02-19T10:36:31.952Z,89.43
2023-02-19T10:37:08.493Z,89.73
2023-02-19T10:38:08.747Z,89.94
2023-02-19T10:39:08.501Z,89.73
2023-02-19T10:40:08.742Z,90.04
2023-02-19T10:41:08.787Z,90.25
2023-02-19T10:42:08.749Z,90.14
2023-02-19T10:43:08.527Z,90.14
2023-02-19T10:44:08.286Z,89.94
2023-02-19T10:45:08.529Z,89.73
2023-02-19T10:46:29.070Z,89.84
2023-02-19T10:47:08.582Z,89.79
2023-02-19T10:48:08.349Z,89.79
2023-02-19T10:49:08.587Z,89.45
2023-02-19T10:50:08.337Z,89.14
2023-02-19T10:51:08.809Z,88.84
2023-02-19T10:52:08.334Z,88.39
2023-02-19T10:53:10.069Z,87.63
2023-02-19T10:54:08.316Z,87.23
2023-02-19T10:55:08.578Z,86.43
2023-02-19T10:56:28.607Z,80.65
2023-02-19T10:57:10.814Z,77.54
2023-02-19T10:58:11.071Z,73.72
2023-02-19T10:59:08.325Z,71.91
2023-02-19T11:00:08.087Z,72.34
2023-02-19T11:01:08.723Z,72.41
2023-02-19T11:02:08.074Z,72.95
2023-02-19T11:03:08.310Z,73.96
2023-02-19T11:04:08.114Z,73.90
2023-02-19T11:05:08.308Z,74.44
2023-02-19T11:06:29.560Z,75.45
2023-02-19T11:07:08.342Z,74.33
2023-02-19T11:08:08.104Z,74.88
2023-02-19T11:09:08.331Z,75.86
2023-02-19T11:10:08.088Z,77.12
2023-02-19T11:11:08.505Z,78.27
2023-02-19T11:12:09.535Z,79.12
2023-02-19T11:13:08.334Z,80.37
2023-02-19T11:14:08.101Z,81.12
2023-02-19T11:15:08.342Z,81.87
2023-02-19T11:16:28.980Z,83.03
2023-02-19T11:17:07.976Z,83.37
2023-02-19T11:18:08.247Z,83.27
2023-02-19T11:19:07.991Z,84.12
2023-02-19T11:20:08.276Z,84.33
2023-02-19T11:21:08.067Z,84.37
2023-02-19T11:22:08.270Z,84.47
2023-02-19T11:23:08.021Z,84.78
2023-02-19T11:24:08.292Z,85.13
2023-02-19T11:25:08.073Z,85.33
2023-02-19T11:26:29.337Z,85.13
2023-02-19T11:27:08.109Z,85.33
2023-02-19T11:28:07.920Z,85.43
2023-02-19T11:29:08.167Z,85.33
2023-02-19T11:30:07.944Z,85.43
2023-02-19T11:31:08.342Z,85.33
2023-02-19T11:32:08.072Z,85.43
2023-02-19T11:33:08.173Z,85.43
2023-02-19T11:34:07.943Z,85.53
2023-02-19T11:35:07.680Z,85.53
2023-02-19T11:36:30.420Z,85.57
2023-02-19T11:37:07.763Z,85.68
2023-02-19T11:38:07.990Z,85.88
2023-02-19T11:39:08.688Z,86.29
2023-02-19T11:40:07.993Z,86.18
2023-02-19T11:41:07.783Z,85.98
2023-02-19T11:42:08.007Z,85.98
2023-02-19T11:43:07.747Z,85.88
2023-02-19T11:44:08.025Z,85.98
2023-02-19T11:45:07.757Z,85.74
2023-02-19T11:46:28.480Z,85.84
2023-02-19T11:47:07.828Z,85.94
2023-02-19T11:48:07.589Z,85.84
2023-02-19T11:49:07.865Z,85.22
2023-02-19T11:50:07.609Z,85.22
2023-02-19T11:51:07.881Z,84.86
2023-02-19T11:52:07.628Z,84.96
2023-02-19T11:53:07.883Z,84.75
2023-02-19T11:54:07.645Z,85.27
2023-02-19T11:55:07.883Z,85.47
2023-02-19T11:56:28.685Z,85.98
2023-02-19T11:57:07.948Z,86.08
2023-02-19T11:58:07.696Z,85.98
2023-02-19T11:59:07.465Z,85.47
2023-02-19T12:00:07.693Z,85.06
2023-02-19T12:01:07.537Z,85.16
2023-02-19T12:02:07.713Z,85.16
2023-02-19T12:03:07.482Z,84.75
2023-02-19T12:04:07.734Z,84.45
2023-02-19T12:05:07.563Z,84.45
2023-02-19T12:06:29.233Z,84.55
2023-02-19T12:07:07.552Z,84.75
2023-02-19T12:08:06.848Z,84.86
2023-02-19T12:09:07.854Z,84.86
2023-02-19T12:10:07.662Z,84.96
2023-02-19T12:11:07.418Z,84.96
2023-02-19T12:12:07.695Z,84.11
2023-02-19T12:13:16.459Z,83.72
2023-02-19T12:14:07.680Z,79.66
2023-02-19T12:15:07.434Z,77.19
2023-02-19T12:16:29.380Z,77.77
2023-02-19T12:17:07.619Z,78.38
2023-02-19T12:18:07.367Z,79.13
2023-02-19T12:19:07.625Z,79.74
2023-02-19T12:20:07.363Z,80.15
2023-02-19T12:21:07.651Z,79.94
2023-02-19T12:22:07.355Z,79.29
2023-02-19T12:23:07.643Z,78.99
2023-02-19T12:24:07.360Z,78.89
2023-02-19T12:25:07.628Z,79.19
2023-02-19T12:26:28.042Z,79.09
2023-02-19T12:27:07.219Z,78.14
2023-02-19T12:28:07.466Z,77.56
2023-02-19T12:29:07.259Z,76.61
2023-02-19T12:30:07.477Z,76.37
2023-02-19T12:31:07.246Z,74.95
2023-02-19T12:32:07.528Z,75.19
2023-02-19T12:33:07.229Z,76.14
2023-02-19T12:34:07.476Z,76.17
2023-02-19T12:35:07.256Z,76.51
2023-02-19T12:36:28.226Z,77.36
2023-02-19T12:37:07.339Z,77.87
2023-02-19T12:38:07.089Z,78.17
2023-02-19T12:39:07.384Z,78.82
2023-02-19T12:40:07.105Z,79.13
2023-02-19T12:41:07.381Z,79.47
2023-02-19T12:42:08.604Z,79.88
2023-02-19T12:43:08.878Z,80.18
2023-02-19T12:44:07.245Z,80.29
2023-02-19T12:45:08.473Z,80.29
2023-02-19T12:46:28.779Z,79.88
2023-02-19T12:47:07.089Z,79.27
2023-02-19T12:48:07.361Z,78.96
2023-02-19T12:49:07.132Z,78.45
2023-02-19T12:50:07.383Z,77.64
2023-02-19T12:51:07.134Z,77.09
2023-02-19T12:52:07.372Z,77.09